createdAt,value
2023-11-11T00:01:29.955Z,2.58
2023-11-11T00:03:58.674Z,2.75
2023-11-11T00:06:25.849Z,2.65
2023-11-11T00:08:53.124Z,2.97
2023-11-11T00:11:21.630Z,2.90
2023-11-11T00:13:48.789Z,2.50
2023-11-11T00:16:16.376Z,2.47
2023-11-11T00:18:43.617Z,3.03
2023-11-11T00:21:13.127Z,2.35
2023-11-11T00:23:40.305Z,2.50
2023-11-11T00:26:07.541Z,2.30
2023-11-11T00:28:41.335Z,3.55
2023-11-11T00:33:37.367Z,2.60
2023-11-11T00:36:06.859Z,2.45
2023-11-11T00:38:36.395Z,3.35
2023-11-11T00:41:04.655Z,2.88
2023-11-11T00:43:32.261Z,2.92
2023-11-11T00:45:59.980Z,3.63
2023-11-11T00:48:27.385Z,3.45
2023-11-11T00:50:54.665Z,2.90
2023-11-11T00:53:21.916Z,3.08
2023-11-11T00:55:50.543Z,2.95
2023-11-11T00:58:17.656Z,3.30
2023-11-11T01:00:45.295Z,3.05
2023-11-11T01:03:13.393Z,3.05
2023-11-11T01:05:41.321Z,2.72
2023-11-11T01:08:08.349Z,2.67
2023-11-11T01:10:39.104Z,2.85
2023-11-11T01:13:07.757Z,3.20
2023-11-11T01:15:35.987Z,2.85
2023-11-11T01:18:03.379Z,3.08
2023-11-11T01:20:30.570Z,3.40
2023-11-11T01:22:57.784Z,3.35
2023-11-11T01:25:25.109Z,4.20
2023-11-11T01:27:52.323Z,4.07
2023-11-11T01:30:21.274Z,4.32
2023-11-11T01:32:48.415Z,3.22
2023-11-11T01:35:15.739Z,4.40
2023-11-11T01:37:43.305Z,4.35
2023-11-11T01:40:11.696Z,4.88
2023-11-11T01:42:39.037Z,5.32
2023-11-11T01:45:07.122Z,4.85
2023-11-11T01:47:36.867Z,5.07
2023-11-11T01:50:04.970Z,5.28
2023-11-11T01:52:32.396Z,5.80
2023-11-11T01:55:00.167Z,5.38
2023-11-11T01:57:28.323Z,5.60
2023-11-11T01:59:56.324Z,6.32
2023-11-11T02:02:23.411Z,6.07
2023-11-11T02:04:51.993Z,7.55
2023-11-11T02:07:19.621Z,6.47
2023-11-11T02:09:47.776Z,7.28
2023-11-11T02:12:15.171Z,6.93
2023-11-11T02:14:42.485Z,6.97
2023-11-11T02:17:09.773Z,6.90
2023-11-11T02:19:37.011Z,8.10
2023-11-11T02:22:05.525Z,7.38
2023-11-11T02:24:35.223Z,8.27
2023-11-11T02:27:02.602Z,8.50
2023-11-11T02:29:30.054Z,9.20
2023-11-11T02:31:57.188Z,9.55
2023-11-11T02:34:24.789Z,9.55
2023-11-11T02:37:00.589Z,9.63
2023-11-11T02:39:30.125Z,8.98
2023-11-11T02:41:58.708Z,9.90
2023-11-11T02:44:26.445Z,9.45
2023-11-11T02:46:53.553Z,9.93
2023-11-11T02:49:20.578Z,9.45
2023-11-11T02:51:47.702Z,9.90
2023-11-11T02:54:14.867Z,9.52
2023-11-11T02:56:45.476Z,9.73
2023-11-11T02:59:15.399Z,9.10
2023-11-11T03:01:52.885Z,8.95
2023-11-11T03:04:23.392Z,9.52
2023-11-11T03:06:51.139Z,9.48
2023-11-11T03:09:19.660Z,8.85
2023-11-11T03:11:52.546Z,9.57
2023-11-11T03:14:21.664Z,8.88
2023-11-11T03:16:49.297Z,10.20
2023-11-11T03:19:16.740Z,8.73
2023-11-11T03:21:44.233Z,8.40
2023-11-11T03:24:17.302Z,10.50
2023-11-11T03:26:44.896Z,9.38
2023-11-11T03:29:12.480Z,8.75
2023-11-11T03:31:46.189Z,7.95
2023-11-11T03:34:13.549Z,9.07
2023-11-11T03:36:41.019Z,8.70
2023-11-11T03:39:08.499Z,8.43
2023-11-11T03:41:36.096Z,9.70
2023-11-11T03:44:05.963Z,8.45
2023-11-11T03:46:33.578Z,7.88
2023-11-11T03:49:03.751Z,7.82
2023-11-11T03:51:30.993Z,7.40
2023-11-11T03:53:58.335Z,7.55
2023-11-11T03:56:25.978Z,8.65
2023-11-11T03:58:53.166Z,7.50
2023-11-11T04:01:23.710Z,8.57
2023-11-11T04:03:52.352Z,7.15
2023-11-11T04:06:20.942Z,7.40
2023-11-11T04:08:48.205Z,7.72
2023-11-11T04:11:16.086Z,9.27
2023-11-11T04:13:47.332Z,8.65
2023-11-11T04:16:16.025Z,7.20
2023-11-11T04:18:43.529Z,6.90
2023-11-11T04:21:13.162Z,7.22
2023-11-11T04:23:41.816Z,6.88
2023-11-11T04:26:08.978Z,6.82
2023-11-11T04:28:36.031Z,5.85
2023-11-11T04:31:12.573Z,7.25
2023-11-11T04:33:39.805Z,6.15
2023-11-11T04:36:08.355Z,6.50
2023-11-11T04:38:38.634Z,6.72
2023-11-11T04:41:07.183Z,6.82
2023-11-11T04:43:45.275Z,5.78
2023-11-11T04:48:39.672Z,5.65
2023-11-11T04:51:07.051Z,5.72
2023-11-11T04:53:35.174Z,6.50
2023-11-11T04:56:07.362Z,6.20
2023-11-11T04:58:38.008Z,6.18
2023-11-11T05:01:05.499Z,5.90
2023-11-11T05:03:33.125Z,7.25
2023-11-11T05:06:00.341Z,5.82
2023-11-11T05:08:27.320Z,5.35
2023-11-11T05:10:54.475Z,6.25
2023-11-11T05:13:28.139Z,5.68
2023-11-11T05:16:05.210Z,6.10
2023-11-11T05:18:34.294Z,4.65
2023-11-11T05:21:13.694Z,6.15
2023-11-11T05:23:41.128Z,5.05
2023-11-11T05:26:08.443Z,6.32
2023-11-11T05:28:37.335Z,6.60
2023-11-11T05:31:04.720Z,6.22
2023-11-11T05:33:32.020Z,5.85
2023-11-11T05:35:59.193Z,6.20
2023-11-11T05:38:33.428Z,5.78
2023-11-11T05:41:00.645Z,5.70
2023-11-11T05:43:27.666Z,5.28
2023-11-11T05:45:56.263Z,5.88
2023-11-11T05:48:23.475Z,5.13
2023-11-11T05:50:56.528Z,5.53
2023-11-11T05:53:24.163Z,5.20
2023-11-11T05:55:54.217Z,5.68
2023-11-11T05:58:21.437Z,5.57
2023-11-11T06:00:48.659Z,5.65
2023-11-11T06:03:17.411Z,6.07
2023-11-11T06:05:55.391Z,5.65
2023-11-11T06:08:22.666Z,6.88
2023-11-11T06:10:50.252Z,5.85
2023-11-11T06:13:17.503Z,5.78
2023-11-11T06:15:46.167Z,5.60
2023-11-11T06:18:14.166Z,5.57
2023-11-11T06:20:42.910Z,5.40
2023-11-11T06:25:41.169Z,5.20
2023-11-11T06:28:08.793Z,5.32
2023-11-11T06:30:39.246Z,5.60
2023-11-11T06:33:06.594Z,5.50
2023-11-11T06:35:35.582Z,4.65
2023-11-11T06:38:09.175Z,5.00
2023-11-11T06:40:36.327Z,4.78
2023-11-11T06:43:05.664Z,5.38
2023-11-11T06:45:37.975Z,5.45
2023-11-11T06:48:06.851Z,5.43
2023-11-11T06:50:34.270Z,4.97
2023-11-11T06:53:01.243Z,5.45
2023-11-11T06:55:31.387Z,5.70
2023-11-11T06:58:05.190Z,4.90
2023-11-11T07:00:34.318Z,5.68
2023-11-11T07:03:01.716Z,7.95
2023-11-11T07:05:37.289Z,7.70
2023-11-11T07:08:07.318Z,6.10
2023-11-11T07:10:39.146Z,6.43
2023-11-11T07:13:09.795Z,6.40
2023-11-11T07:15:38.137Z,5.82
2023-11-11T07:18:08.895Z,4.90
2023-11-11T07:20:35.991Z,6.88
2023-11-11T07:23:03.217Z,5.65
2023-11-11T07:25:59.848Z,4.97
2023-11-11T07:28:28.310Z,5.38
2023-11-11T07:30:55.439Z,4.43
2023-11-11T07:33:22.561Z,5.13
2023-11-11T07:35:49.675Z,4.63
2023-11-11T07:38:16.787Z,5.22
2023-11-11T07:40:43.931Z,5.60
2023-11-11T07:43:12.392Z,5.05
2023-11-11T07:45:39.392Z,5.00
2023-11-11T07:48:07.983Z,4.97
2023-11-11T07:50:35.266Z,5.13
2023-11-11T07:53:06.059Z,4.85
2023-11-11T07:55:33.159Z,5.18
2023-11-11T08:00:35.032Z,5.97
2023-11-11T08:03:03.993Z,5.20
2023-11-11T08:05:31.252Z,5.88
2023-11-11T08:08:08.213Z,6.13
2023-11-11T08:10:41.896Z,5.55
2023-11-11T08:13:09.439Z,5.28
2023-11-11T08:15:38.161Z,4.97
2023-11-11T08:18:05.787Z,5.25
2023-11-11T08:20:32.995Z,5.35
2023-11-11T08:23:00.186Z,5.25
2023-11-11T08:25:28.329Z,5.85
2023-11-11T08:27:56.937Z,5.18
2023-11-11T08:30:24.809Z,5.45
2023-11-11T08:32:53.388Z,6.05
2023-11-11T08:35:21.823Z,6.22
2023-11-11T08:37:49.863Z,5.03
2023-11-11T08:40:18.634Z,4.93
2023-11-11T08:42:45.980Z,5.43
2023-11-11T08:45:15.024Z,4.45
2023-11-11T08:47:46.511Z,5.43
2023-11-11T08:50:15.320Z,5.35
2023-11-11T08:52:43.316Z,5.22
2023-11-11T09:03:46.057Z,5.15
2023-11-11T09:39:11.558Z,5.20
2023-11-11T10:20:41.508Z,3.55
2023-11-11T10:23:21.543Z,2.97
2023-11-11T10:26:01.431Z,3.22
2023-11-11T10:28:32.275Z,3.17
2023-11-11T10:31:23.077Z,2.83
2023-11-11T10:38:13.737Z,3.13
2023-11-11T10:40:42.254Z,3.55
2023-11-11T10:43:11.862Z,2.67
2023-11-11T10:45:39.035Z,2.60
2023-11-11T10:48:07.071Z,3.22
2023-11-11T10:50:35.248Z,2.92
2023-11-11T10:53:05.482Z,2.85
2023-11-11T10:55:34.857Z,2.75
2023-11-11T10:58:02.824Z,2.60
2023-11-11T11:00:29.967Z,2.97
2023-11-11T11:02:57.873Z,2.75
2023-11-11T11:05:33.120Z,3.85
2023-11-11T11:08:08.566Z,3.13
2023-11-11T11:10:42.307Z,2.88
2023-11-11T11:15:45.381Z,3.42
2023-11-11T11:18:12.990Z,3.20
2023-11-11T11:20:42.575Z,1.98
2023-11-11T11:23:12.555Z,2.10
2023-11-11T11:25:43.482Z,2.42
2023-11-11T11:28:23.819Z,2.45
2023-11-11T11:30:52.549Z,2.55
2023-11-11T11:33:21.419Z,2.47
2023-11-11T11:35:49.528Z,1.58
2023-11-11T11:38:28.725Z,2.47
2023-11-11T11:41:07.012Z,1.83
2023-11-11T11:43:36.117Z,1.77
2023-11-11T11:46:05.683Z,4.72
2023-11-11T11:48:34.601Z,2.40
2023-11-11T11:51:10.026Z,2.42
2023-11-11T11:53:38.434Z,1.75
2023-11-11T11:56:08.001Z,2.20
2023-11-11T11:58:46.733Z,1.92
2023-11-11T12:01:25.638Z,2.58
2023-11-11T12:03:53.913Z,2.08
2023-11-11T12:06:24.503Z,2.08
2023-11-11T12:08:53.071Z,1.38
2023-11-11T12:11:31.646Z,1.83
2023-11-11T12:14:04.258Z,1.75
2023-11-11T12:16:39.399Z,2.38
2023-11-11T12:19:10.760Z,2.25
2023-11-11T12:21:45.081Z,2.13
2023-11-11T12:24:12.928Z,2.15
2023-11-11T12:26:52.960Z,1.95
2023-11-11T12:29:21.068Z,1.65
2023-11-11T12:31:53.101Z,1.45
2023-11-11T12:34:23.727Z,0.85
2023-11-11T12:36:55.508Z,1.00
2023-11-11T12:39:26.493Z,1.50
2023-11-11T12:42:00.368Z,1.13
2023-11-11T12:44:33.339Z,1.25
2023-11-11T12:47:00.533Z,1.47
2023-11-11T12:49:29.566Z,1.80
2023-11-11T12:52:00.801Z,1.42
2023-11-11T12:54:35.064Z,2.00
2023-11-11T12:59:32.581Z,1.40
2023-11-11T13:02:05.416Z,1.27
2023-11-11T13:04:33.308Z,1.40
2023-11-11T13:07:02.503Z,1.23
2023-11-11T13:09:40.365Z,1.15
2023-11-11T13:12:09.264Z,1.50
2023-11-11T13:14:37.066Z,1.15
2023-11-11T13:17:09.268Z,1.45
2023-11-11T13:19:36.761Z,1.15
2023-11-11T13:22:07.482Z,1.30
2023-11-11T13:24:34.485Z,0.90
2023-11-11T13:27:01.812Z,0.82
2023-11-11T13:29:30.429Z,1.20
2023-11-11T13:31:58.649Z,1.02
2023-11-11T13:34:26.386Z,0.60
2023-11-11T13:36:53.499Z,1.00
2023-11-11T13:39:38.967Z,1.20
2023-11-11T13:42:11.411Z,1.17
2023-11-11T13:44:40.191Z,0.70
2023-11-11T13:47:10.076Z,1.23
2023-11-11T13:49:37.692Z,1.42
2023-11-11T13:52:05.695Z,0.93
2023-11-11T13:54:32.919Z,3.50
2023-11-11T13:57:00.076Z,2.90
2023-11-11T13:59:27.261Z,2.50
2023-11-11T14:01:55.982Z,1.75
2023-11-11T14:04:23.481Z,1.27
2023-11-11T14:06:51.031Z,1.20
2023-11-11T14:09:18.416Z,0.98
2023-11-11T14:11:45.706Z,1.00
2023-11-11T14:14:12.961Z,1.20
2023-11-11T14:16:40.368Z,0.90
2023-11-11T14:19:11.312Z,1.15
2023-11-11T14:21:38.718Z,0.85
2023-11-11T14:24:08.106Z,0.80
2023-11-11T14:26:35.397Z,0.90
2023-11-11T14:29:02.732Z,1.20
2023-11-11T14:31:32.592Z,1.02
2023-11-11T14:34:04.212Z,0.70
2023-11-11T14:36:40.355Z,1.13
2023-11-11T14:39:09.464Z,1.38
2023-11-11T14:41:36.936Z,1.20
2023-11-11T14:44:05.815Z,1.30
2023-11-11T14:46:35.892Z,1.17
2023-11-11T14:49:06.395Z,1.30
2023-11-11T14:51:33.588Z,1.70
2023-11-11T14:54:02.114Z,1.33
2023-11-11T14:56:31.838Z,1.15
2023-11-11T14:58:58.960Z,1.40
2023-11-11T15:01:26.260Z,1.40
2023-11-11T15:03:54.549Z,2.88
2023-11-11T15:06:21.840Z,3.70
2023-11-11T15:08:49.391Z,3.13
2023-11-11T15:11:18.417Z,2.22
2023-11-11T15:13:45.550Z,1.83
2023-11-11T15:16:15.738Z,1.58
2023-11-11T15:18:43.295Z,3.95
2023-11-11T15:21:11.632Z,5.05
2023-11-11T15:23:38.768Z,3.85
2023-11-11T15:26:06.950Z,5.72
2023-11-11T15:28:36.998Z,4.60
2023-11-11T15:31:05.704Z,3.05
2023-11-11T15:33:32.826Z,5.50
2023-11-11T15:36:00.460Z,4.72
2023-11-11T15:38:27.517Z,4.25
2023-11-11T15:40:56.744Z,5.10
2023-11-11T15:43:24.025Z,4.00
2023-11-11T15:45:52.700Z,4.05
2023-11-11T15:48:19.934Z,1.90
2023-11-11T15:50:47.387Z,3.67
2023-11-11T15:53:14.566Z,3.90
2023-11-11T15:55:41.768Z,8.07
2023-11-11T15:58:09.700Z,8.95
2023-11-11T16:00:38.236Z,5.15
2023-11-11T16:03:06.993Z,6.78
2023-11-11T16:05:36.405Z,4.10
2023-11-11T16:08:04.142Z,6.10
2023-11-11T16:10:31.437Z,8.35
2023-11-11T16:12:58.896Z,9.32
2023-11-11T16:15:26.219Z,8.90
2023-11-11T16:17:56.406Z,8.20
2023-11-11T16:20:26.508Z,12.30
2023-11-11T16:22:54.087Z,14.88
2023-11-11T16:25:22.109Z,10.52
2023-11-11T16:27:51.894Z,11.57
2023-11-11T16:30:19.848Z,10.82
2023-11-11T16:32:47.256Z,10.20
2023-11-11T16:35:14.766Z,7.70
2023-11-11T16:37:43.561Z,5.38
2023-11-11T16:40:13.793Z,6.10
2023-11-11T16:42:44.985Z,6.28
2023-11-11T16:45:13.788Z,8.02
2023-11-11T16:47:41.899Z,7.70
2023-11-11T16:50:10.366Z,7.95
2023-11-11T16:52:38.861Z,5.82
2023-11-11T16:55:09.778Z,4.80
2023-11-11T16:57:37.088Z,4.90
2023-11-11T17:00:06.455Z,4.95
2023-11-11T17:02:33.769Z,6.22
2023-11-11T17:05:04.177Z,6.28
2023-11-11T17:07:31.384Z,6.32
2023-11-11T17:10:02.322Z,5.32
2023-11-11T17:12:31.430Z,4.85
2023-11-11T17:14:59.285Z,5.32
2023-11-11T17:17:26.420Z,5.25
2023-11-11T17:19:53.815Z,4.80
2023-11-11T17:22:23.026Z,7.88
2023-11-11T17:24:50.710Z,10.48
2023-11-11T17:27:19.018Z,10.98
2023-11-11T17:29:47.589Z,10.57
2023-11-11T17:32:15.067Z,9.15
2023-11-11T17:34:42.174Z,9.68
2023-11-11T17:37:09.635Z,10.27
2023-11-11T17:39:36.721Z,8.50
2023-11-11T17:42:04.623Z,10.20
2023-11-11T17:44:31.923Z,16.02
2023-11-11T17:47:01.190Z,7.82
2023-11-11T17:49:28.616Z,8.63
2023-11-11T17:51:55.950Z,9.55
2023-11-11T17:54:23.337Z,8.75
2023-11-11T17:56:50.547Z,8.05
2023-11-11T17:59:18.142Z,9.30
2023-11-11T18:01:45.279Z,8.95
2023-11-11T18:04:14.226Z,9.40
2023-11-11T18:06:45.432Z,9.70
2023-11-11T18:09:17.368Z,11.85
2023-11-11T18:11:44.663Z,9.73
2023-11-11T18:14:12.326Z,13.48
2023-11-11T18:16:40.127Z,7.38
2023-11-11T18:19:09.960Z,8.98
2023-11-11T18:21:39.275Z,6.82
2023-11-11T18:24:07.923Z,9.38
2023-11-11T18:26:35.322Z,14.32
2023-11-11T18:29:02.475Z,11.73
2023-11-11T18:31:31.273Z,12.13
2023-11-11T18:34:00.271Z,10.52
2023-11-11T18:36:27.324Z,10.35
2023-11-11T18:38:56.359Z,13.15
2023-11-11T18:41:25.457Z,10.73
2023-11-11T18:43:52.814Z,9.13
2023-11-11T18:46:20.201Z,8.13
2023-11-11T18:48:49.453Z,8.32
2023-11-11T18:51:16.806Z,7.80
2023-11-11T18:53:44.377Z,9.82
2023-11-11T18:56:16.089Z,9.00
2023-11-11T18:58:43.286Z,6.97
2023-11-11T19:01:11.081Z,9.00
2023-11-11T19:03:39.037Z,9.38
2023-11-11T19:06:06.252Z,9.77
2023-11-11T19:08:33.537Z,7.75
2023-11-11T19:11:00.728Z,8.60
2023-11-11T19:13:29.235Z,9.10
2023-11-11T19:15:56.631Z,9.00
2023-11-11T19:18:24.025Z,8.45
2023-11-11T19:20:51.166Z,8.43
2023-11-11T19:23:19.717Z,6.93
2023-11-11T19:25:46.838Z,6.05
2023-11-11T19:28:14.064Z,6.32
2023-11-11T19:30:42.663Z,5.57
2023-11-11T19:33:10.509Z,5.55
2023-11-11T19:35:37.742Z,5.18
2023-11-11T19:38:04.988Z,7.60
2023-11-11T19:40:32.274Z,8.10
2023-11-11T19:42:59.568Z,7.57
2023-11-11T19:45:26.729Z,8.82
2023-11-11T19:47:55.650Z,8.25
2023-11-11T19:50:23.069Z,8.38
2023-11-11T19:52:50.708Z,6.85
2023-11-11T19:55:18.703Z,7.57
2023-11-11T19:57:46.780Z,7.07
2023-11-11T20:00:15.325Z,6.55
2023-11-11T20:02:43.513Z,7.40
2023-11-11T20:05:14.974Z,7.00
2023-11-11T20:07:43.698Z,7.22
2023-11-11T20:10:14.087Z,6.78
2023-11-11T20:12:43.048Z,8.48
2023-11-11T20:15:13.303Z,8.23
2023-11-11T20:17:41.231Z,10.40
2023-11-11T20:20:09.805Z,11.98
2023-11-11T20:22:38.406Z,14.05
2023-11-11T20:25:07.064Z,14.98
2023-11-11T20:27:37.171Z,11.65
2023-11-11T20:30:06.269Z,12.82
2023-11-11T20:32:35.213Z,13.98
2023-11-11T20:35:14.348Z,11.45
2023-11-11T20:37:43.592Z,9.50
2023-11-11T20:40:16.096Z,9.23
2023-11-11T20:42:45.968Z,11.93
2023-11-11T20:45:13.903Z,10.25
2023-11-11T20:47:41.014Z,7.00
2023-11-11T20:50:11.561Z,5.10
2023-11-11T20:52:38.985Z,5.85
2023-11-11T20:55:08.513Z,6.88
2023-11-11T20:57:35.576Z,6.43
2023-11-11T21:00:02.999Z,7.13
2023-11-11T21:02:31.839Z,7.75
2023-11-11T21:05:04.741Z,7.53
2023-11-11T21:07:34.667Z,7.15
2023-11-11T21:10:02.173Z,6.22
2023-11-11T21:12:30.745Z,6.40
2023-11-11T21:14:57.971Z,5.90
2023-11-11T21:17:28.385Z,5.88
2023-11-11T21:19:55.717Z,6.75
2023-11-11T21:22:23.675Z,8.68
2023-11-11T21:24:50.797Z,8.50
2023-11-11T21:27:17.856Z,8.85
2023-11-11T21:29:47.570Z,8.88
2023-11-11T21:32:15.110Z,12.13
2023-11-11T21:34:42.744Z,11.85
2023-11-11T21:37:10.252Z,9.13
2023-11-11T21:39:37.598Z,10.77
2023-11-11T21:42:05.394Z,8.68
2023-11-11T21:44:32.474Z,8.30
2023-11-11T21:47:01.310Z,7.28
2023-11-11T21:49:29.556Z,6.75
2023-11-11T21:51:56.568Z,6.03
2023-11-11T21:54:23.864Z,6.75
2023-11-11T21:56:51.188Z,7.88
2023-11-11T21:59:18.295Z,7.32
2023-11-11T22:01:45.877Z,7.10
2023-11-11T22:04:14.465Z,8.48
2023-11-11T22:06:41.687Z,8.25
2023-11-11T22:09:09.101Z,8.52
2023-11-11T22:11:39.418Z,7.43
2023-11-11T22:14:06.910Z,7.35
2023-11-11T22:16:36.231Z,8.38
2023-11-11T22:19:05.061Z,9.25
2023-11-11T22:21:33.652Z,8.10
2023-11-11T22:24:01.311Z,8.40
2023-11-11T22:26:28.966Z,7.95
2023-11-11T22:28:56.415Z,9.35
2023-11-11T22:31:23.513Z,10.55
2023-11-11T22:33:50.621Z,9.40
2023-11-11T22:36:17.868Z,10.45
2023-11-11T22:38:46.400Z,10.70
2023-11-11T22:41:13.430Z,9.95
2023-11-11T22:43:42.327Z,10.60
2023-11-11T22:46:09.584Z,11.20
2023-11-11T22:48:37.849Z,10.70
2023-11-11T22:51:05.485Z,11.23
2023-11-11T22:53:32.546Z,11.75
2023-11-11T22:56:01.387Z,12.50
2023-11-11T22:58:28.476Z,12.43
2023-11-11T23:00:59.314Z,12.82
2023-11-11T23:03:28.132Z,13.02
2023-11-11T23:05:55.237Z,13.15
2023-11-11T23:08:24.458Z,12.77
2023-11-11T23:10:51.718Z,12.45
2023-11-11T23:13:22.114Z,13.00
2023-11-11T23:15:49.782Z,12.68
2023-11-11T23:18:17.334Z,11.65
2023-11-11T23:20:45.339Z,12.20
2023-11-11T23:23:14.751Z,12.35
2023-11-11T23:25:42.205Z,13.27
2023-11-11T23:28:09.821Z,13.05
2023-11-11T23:30:38.665Z,12.80
2023-11-11T23:33:07.823Z,12.13
2023-11-11T23:35:35.279Z,13.15
2023-11-11T23:38:02.453Z,12.95
2023-11-11T23:40:30.154Z,12.82
2023-11-11T23:42:57.416Z,13.10
2023-11-11T23:45:24.866Z,14.35
2023-11-11T23:47:53.438Z,13.13
2023-11-11T23:50:20.667Z,13.07
2023-11-11T23:52:48.064Z,15.68
2023-11-11T23:55:15.654Z,17.75
2023-11-11T23:57:42.871Z,18.58
